createdAt,value
2022-10-05T00:02:39.583Z,99262.81
2022-10-05T00:07:47.194Z,99261.72
2022-10-05T00:12:53.567Z,99262.31
2022-10-05T00:17:58.940Z,99261.19
2022-10-05T00:23:11.875Z,99253.47
2022-10-05T00:28:21.692Z,99253.81
2022-10-05T00:33:26.813Z,99251.22
2022-10-05T00:38:34.592Z,99261.59
2022-10-05T00:44:00.609Z,99246.25
2022-10-05T00:49:16.547Z,99244.13
2022-10-05T00:54:35.028Z,99237.16
2022-10-05T00:59:54.204Z,99246.84
2022-10-05T01:05:04.310Z,99244.69
2022-10-05T01:10:20.069Z,99250.00
2022-10-05T01:15:32.799Z,99249.50
2022-10-05T01:20:53.918Z,99245.66
2022-10-05T01:26:19.473Z,99238.75
2022-10-05T01:31:36.539Z,99237.16
2022-10-05T01:36:48.724Z,99241.50
2022-10-05T01:42:03.383Z,99232.94
2022-10-05T01:47:16.494Z,99216.72
2022-10-05T01:52:33.840Z,99212.53
2022-10-05T01:57:53.358Z,99212.94
2022-10-05T02:03:07.712Z,99213.50
2022-10-05T02:08:18.313Z,99202.56
2022-10-05T02:13:28.497Z,99200.16
2022-10-05T02:18:43.553Z,99221.56
2022-10-05T02:23:54.281Z,99230.78
2022-10-05T02:29:08.350Z,99218.81
2022-10-05T02:34:28.478Z,99216.28
2022-10-05T02:40:00.897Z,99221.38
2022-10-05T02:45:18.087Z,99217.69
2022-10-05T02:50:37.042Z,99211.88
2022-10-05T02:55:49.682Z,99206.41
2022-10-05T03:01:02.202Z,99207.44
2022-10-05T03:06:16.055Z,99202.94
2022-10-05T03:11:28.378Z,99196.28
2022-10-05T03:16:44.640Z,99190.53
2022-10-05T03:21:59.607Z,99196.44
2022-10-05T03:27:16.387Z,99187.16
2022-10-05T03:32:31.021Z,99188.41
2022-10-05T03:37:48.855Z,99194.28
2022-10-05T03:43:04.511Z,99200.34
2022-10-05T03:48:14.469Z,99202.81
2022-10-05T03:53:25.123Z,99199.63
2022-10-05T03:58:37.690Z,99207.81
2022-10-05T04:03:46.777Z,99206.28
2022-10-05T04:09:02.033Z,99202.28
2022-10-05T04:14:13.985Z,99202.47
2022-10-05T04:19:24.915Z,99214.41
2022-10-05T04:24:37.988Z,99212.88
2022-10-05T04:29:47.828Z,99207.09
2022-10-05T04:35:11.015Z,99204.22
2022-10-05T04:40:32.741Z,99198.88
2022-10-05T04:45:51.878Z,99197.28
2022-10-05T04:51:13.338Z,99208.81
2022-10-05T04:56:26.947Z,99219.06
2022-10-05T05:01:49.185Z,99220.34
2022-10-05T05:07:06.630Z,99214.94
2022-10-05T05:12:29.572Z,99216.91
2022-10-05T05:17:54.871Z,99225.50
2022-10-05T05:23:10.172Z,99231.16
2022-10-05T05:28:31.060Z,99227.31
2022-10-05T05:33:48.736Z,99240.06
2022-10-05T05:39:18.567Z,99233.22
2022-10-05T05:44:29.432Z,99227.84
2022-10-05T05:49:47.397Z,99234.63
2022-10-05T05:54:57.784Z,99240.41
2022-10-05T06:00:11.012Z,99239.91
2022-10-05T06:05:31.012Z,99243.66
2022-10-05T06:10:43.890Z,99245.59
2022-10-05T06:15:57.045Z,99239.72
2022-10-05T06:21:05.968Z,99236.25
2022-10-05T06:26:35.399Z,99227.13
2022-10-05T06:32:06.019Z,99228.25
2022-10-05T06:37:23.804Z,99218.38
2022-10-05T06:43:01.703Z,99220.75
2022-10-05T06:48:22.993Z,99210.97
2022-10-05T06:53:50.377Z,99208.66
2022-10-05T06:59:02.859Z,99204.38
2022-10-05T07:04:37.079Z,99202.53
2022-10-05T07:09:56.804Z,99197.38
2022-10-05T07:15:28.136Z,99196.50
2022-10-05T07:20:49.249Z,99194.50
2022-10-05T07:26:07.952Z,99176.50
2022-10-05T07:31:24.732Z,99179.25
2022-10-05T07:36:54.992Z,99178.91
2022-10-05T07:42:19.456Z,99161.06
2022-10-05T07:47:37.791Z,99169.59
2022-10-05T07:52:55.058Z,99176.25
2022-10-05T07:58:11.667Z,99167.44
2022-10-05T08:03:27.325Z,99188.78
2022-10-05T08:08:48.270Z,99211.91
2022-10-05T08:13:59.927Z,99192.72
2022-10-05T08:19:19.831Z,99179.13
2022-10-05T08:24:45.639Z,99179.47
2022-10-05T08:29:59.047Z,99179.00
2022-10-05T08:35:16.830Z,99158.88
2022-10-05T08:40:57.266Z,99156.00
2022-10-05T08:46:34.480Z,99161.59
2022-10-05T08:51:57.572Z,99158.94
2022-10-05T08:57:31.484Z,99164.44
2022-10-05T09:02:53.539Z,99159.53
2022-10-05T09:08:32.728Z,99168.78
2022-10-05T09:14:04.778Z,99155.56
2022-10-05T09:19:41.105Z,99152.75
2022-10-05T09:24:59.638Z,99148.97
2022-10-05T09:30:25.583Z,99135.38
2022-10-05T09:35:53.708Z,99141.78
2022-10-05T09:41:33.061Z,99137.63
2022-10-05T09:47:00.340Z,99133.47
2022-10-05T09:52:25.825Z,99125.34
2022-10-05T09:57:56.517Z,99130.81
2022-10-05T10:03:32.571Z,99118.22
2022-10-05T10:08:48.580Z,99104.50
2022-10-05T10:14:18.246Z,99105.03
2022-10-05T10:20:04.283Z,99104.97
2022-10-05T10:25:37.165Z,99092.47
2022-10-05T10:31:20.298Z,99093.69
2022-10-05T10:36:50.798Z,99092.00
2022-10-05T10:42:28.901Z,99097.03
2022-10-05T10:47:54.684Z,99085.63
2022-10-05T10:53:20.685Z,99089.59
2022-10-05T10:58:55.143Z,99091.16
2022-10-05T11:04:16.051Z,99078.66
2022-10-05T11:09:54.407Z,99071.34
2022-10-05T11:15:21.424Z,99066.59
2022-10-05T11:20:59.950Z,99086.38
2022-10-05T11:26:29.667Z,99071.53
2022-10-05T11:32:12.990Z,99060.81
2022-10-05T11:37:49.745Z,99050.19
2022-10-05T11:43:20.202Z,99065.63
2022-10-05T11:48:49.929Z,99051.41
2022-10-05T11:54:07.242Z,99041.34
2022-10-05T11:59:22.649Z,99042.03
2022-10-05T12:04:37.675Z,99060.09
2022-10-05T12:10:20.360Z,99059.38
2022-10-05T12:15:33.318Z,99039.94
2022-10-05T12:20:48.923Z,99042.75
2022-10-05T12:26:09.456Z,99036.16
2022-10-05T12:31:34.386Z,99038.69
2022-10-05T12:37:03.637Z,99029.88
2022-10-05T12:42:23.107Z,99035.47
2022-10-05T12:47:41.013Z,99035.34
2022-10-05T12:53:00.955Z,99034.94
2022-10-05T12:58:27.185Z,99036.44
2022-10-05T13:03:40.030Z,99021.97
2022-10-05T13:08:53.216Z,99021.28
2022-10-05T13:14:10.035Z,99019.66
2022-10-05T13:19:39.264Z,99020.69
2022-10-05T13:24:59.607Z,99014.69
2022-10-05T13:30:10.649Z,99021.34
2022-10-05T13:35:46.546Z,99016.78
2022-10-05T13:40:58.388Z,99006.66
2022-10-05T13:46:15.325Z,99017.38
2022-10-05T13:51:27.532Z,99001.81
2022-10-05T13:56:34.914Z,99007.91
2022-10-05T14:01:45.984Z,99009.97
2022-10-05T14:06:57.762Z,98999.44
2022-10-05T14:12:23.716Z,99009.28
2022-10-05T14:17:51.523Z,99003.69
2022-10-05T14:23:02.940Z,98994.97
2022-10-05T14:28:28.545Z,98998.66
2022-10-05T14:33:35.462Z,98997.22
2022-10-05T14:38:55.873Z,98996.25
2022-10-05T14:44:06.893Z,98997.63
2022-10-05T14:49:22.292Z,98994.81
2022-10-05T14:54:49.519Z,99000.84
2022-10-05T15:00:05.307Z,99002.00
2022-10-05T15:05:18.696Z,98993.97
2022-10-05T15:10:36.597Z,98994.41
2022-10-05T15:15:47.652Z,98988.78
2022-10-05T15:20:59.982Z,98991.50
2022-10-05T15:26:30.140Z,98992.88
2022-10-05T15:31:42.089Z,98993.59
2022-10-05T15:36:52.651Z,98986.91
2022-10-05T15:42:04.743Z,98994.81
2022-10-05T15:47:18.052Z,98986.41
2022-10-05T15:52:29.741Z,98989.63
2022-10-05T15:57:46.681Z,98985.59
2022-10-05T16:02:58.317Z,98983.28
2022-10-05T16:08:18.499Z,98980.16
2022-10-05T16:13:37.297Z,98987.00
2022-10-05T16:18:59.805Z,98988.22
2022-10-05T16:24:21.775Z,98992.25
2022-10-05T16:29:38.434Z,98986.09
2022-10-05T16:34:59.166Z,98993.13
2022-10-05T16:40:19.308Z,98990.88
2022-10-05T16:45:45.369Z,98997.72
2022-10-05T16:51:05.033Z,98997.34
2022-10-05T16:56:14.632Z,98996.09
2022-10-05T17:01:33.167Z,99000.81
2022-10-05T17:06:58.180Z,99011.56
2022-10-05T17:12:17.984Z,99015.09
2022-10-05T17:17:41.406Z,99019.78
2022-10-05T17:22:55.100Z,99020.84
2022-10-05T17:28:18.894Z,99017.75
2022-10-05T17:33:29.383Z,99016.75
2022-10-05T17:38:49.783Z,99010.88
2022-10-05T17:44:30.857Z,99009.22
2022-10-05T17:50:10.933Z,99004.25
2022-10-05T17:55:30.224Z,99000.44
2022-10-05T18:00:43.773Z,99000.44
2022-10-05T18:06:28.479Z,99001.81
2022-10-05T18:11:43.381Z,99009.59
2022-10-05T18:17:01.912Z,99007.06
2022-10-05T18:22:30.498Z,99007.91
2022-10-05T18:27:54.733Z,99012.72
2022-10-05T18:33:34.192Z,99014.84
2022-10-05T18:39:06.017Z,99027.47
2022-10-05T18:44:29.193Z,99020.22
2022-10-05T18:49:54.656Z,99021.50
2022-10-05T18:55:18.411Z,99035.38
2022-10-05T19:00:27.399Z,99033.78
2022-10-05T19:05:48.467Z,99033.03
2022-10-05T19:11:00.882Z,99035.72
2022-10-05T19:16:22.733Z,99036.16
2022-10-05T19:21:34.726Z,99045.63
2022-10-05T19:26:54.191Z,99048.34
2022-10-05T19:32:06.286Z,99054.81
2022-10-05T19:37:17.030Z,99056.94
2022-10-05T19:42:47.400Z,99059.38
2022-10-05T19:48:07.488Z,99075.91
2022-10-05T19:53:17.275Z,99077.06
2022-10-05T19:58:27.152Z,99074.56
2022-10-05T20:03:36.896Z,99072.19
2022-10-05T20:08:45.122Z,99088.00
2022-10-05T20:14:23.277Z,99082.19
2022-10-05T20:19:50.461Z,99087.47
2022-10-05T20:24:56.942Z,99092.06
2022-10-05T20:30:04.898Z,99100.06
2022-10-05T20:35:11.172Z,99105.03
2022-10-05T20:40:17.831Z,99116.44
2022-10-05T20:45:25.717Z,99121.03
2022-10-05T20:50:32.854Z,99117.72
2022-10-05T20:55:37.756Z,99128.75
2022-10-05T21:00:57.657Z,99126.59
2022-10-05T21:06:02.545Z,99122.25
2022-10-05T21:11:09.191Z,99134.00
2022-10-05T21:16:18.360Z,99145.31
2022-10-05T21:21:27.402Z,99135.66
2022-10-05T21:26:32.252Z,99140.56
2022-10-05T21:31:40.677Z,99142.44
2022-10-05T21:36:48.255Z,99146.19
2022-10-05T21:41:53.239Z,99150.56
2022-10-05T21:47:01.784Z,99147.91
2022-10-05T21:52:07.838Z,99152.06
2022-10-05T21:57:15.454Z,99158.16
2022-10-05T22:02:22.956Z,99159.22
2022-10-05T22:07:29.096Z,99159.88
2022-10-05T22:12:34.962Z,99171.00
2022-10-05T22:17:43.792Z,99171.78
2022-10-05T22:22:48.672Z,99165.00
2022-10-05T22:27:53.753Z,99182.63
2022-10-05T22:33:01.167Z,99199.31
2022-10-05T22:38:06.970Z,99190.56
2022-10-05T22:43:12.079Z,99192.28
2022-10-05T22:48:19.463Z,99197.44
2022-10-05T22:53:25.532Z,99190.19
2022-10-05T22:58:30.823Z,99206.47
2022-10-05T23:03:38.987Z,99212.47
2022-10-05T23:08:44.924Z,99208.91
2022-10-05T23:13:50.606Z,99211.75
2022-10-05T23:18:59.272Z,99223.06
2022-10-05T23:24:04.640Z,99214.97
2022-10-05T23:29:10.118Z,99212.47
2022-10-05T23:34:18.031Z,99213.13
2022-10-05T23:39:22.836Z,99220.00
2022-10-05T23:44:27.749Z,99209.44
2022-10-05T23:49:35.154Z,99214.78
2022-10-05T23:54:39.991Z,99225.59
2022-10-05T23:59:45.017Z,99237.06
